sensor_id;sensor_type;location;lat;lon;timestamp;pressure;altitude;pressure_sealevel;temperature;humidity
49178;BME280;35016;55.674;37.468;2022-08-19T00:01:56;99670.28;;;22.11;42.42
49178;BME280;35016;55.674;37.468;2022-08-19T00:04:33;99655.19;;;22.09;42.64
49178;BME280;35016;55.674;37.468;2022-08-19T00:07:04;99662.00;;;22.11;42.77
49178;BME280;35016;55.674;37.468;2022-08-19T00:09:32;99658.44;;;22.11;42.49
49178;BME280;35016;55.674;37.468;2022-08-19T00:11:59;99662.81;;;22.12;42.48
49178;BME280;35016;55.674;37.468;2022-08-19T00:14:28;99663.16;;;22.10;42.65
49178;BME280;35016;55.674;37.468;2022-08-19T00:16:59;99661.66;;;22.13;42.67
49178;BME280;35016;55.674;37.468;2022-08-19T00:19:26;99666.38;;;22.12;42.88
49178;BME280;35016;55.674;37.468;2022-08-19T00:21:53;99681.66;;;22.10;42.92
49178;BME280;35016;55.674;37.468;2022-08-19T00:24:24;99677.44;;;22.12;43.02
49178;BME280;35016;55.674;37.468;2022-08-19T00:26:52;99671.75;;;22.09;43.29
49178;BME280;35016;55.674;37.468;2022-08-19T00:29:20;99678.09;;;22.09;43.51
49178;BME280;35016;55.674;37.468;2022-08-19T00:31:48;99664.97;;;22.06;43.82
49178;BME280;35016;55.674;37.468;2022-08-19T00:34:16;99674.38;;;22.05;43.98
49178;BME280;35016;55.674;37.468;2022-08-19T00:36:44;99667.06;;;22.01;44.05
49178;BME280;35016;55.674;37.468;2022-08-19T00:39:12;99667.72;;;21.98;44.02
49178;BME280;35016;55.674;37.468;2022-08-19T00:41:39;99666.41;;;21.95;44.28
49178;BME280;35016;55.674;37.468;2022-08-19T00:46:42;99669.19;;;21.95;44.36
49178;BME280;35016;55.674;37.468;2022-08-19T00:51:47;99682.69;;;21.88;44.60
49178;BME280;35016;55.674;37.468;2022-08-19T00:54:14;99679.78;;;21.84;44.71
49178;BME280;35016;55.674;37.468;2022-08-19T00:56:42;99685.31;;;21.84;44.64
49178;BME280;35016;55.674;37.468;2022-08-19T00:59:10;99688.88;;;21.85;45.40
49178;BME280;35016;55.674;37.468;2022-08-19T01:01:38;99695.69;;;21.87;44.76
49178;BME280;35016;55.674;37.468;2022-08-19T01:04:06;99700.41;;;21.87;44.43
49178;BME280;35016;55.674;37.468;2022-08-19T01:06:35;99697.63;;;21.87;44.90
49178;BME280;35016;55.674;37.468;2022-08-19T01:09:04;99700.72;;;21.85;44.72
49178;BME280;35016;55.674;37.468;2022-08-19T01:11:35;99705.09;;;21.86;44.96
49178;BME280;35016;55.674;37.468;2022-08-19T01:14:03;99705.09;;;21.86;44.88
49178;BME280;35016;55.674;37.468;2022-08-19T01:16:31;99711.78;;;21.85;44.75
49178;BME280;35016;55.674;37.468;2022-08-19T01:19:00;99728.34;;;21.85;44.65
49178;BME280;35016;55.674;37.468;2022-08-19T01:21:34;99710.47;;;21.83;44.76
49178;BME280;35016;55.674;37.468;2022-08-19T01:24:04;99706.91;;;21.82;44.76
49178;BME280;35016;55.674;37.468;2022-08-19T01:26:39;99710.34;;;21.79;45.20
49178;BME280;35016;55.674;37.468;2022-08-19T01:29:08;99711.31;;;21.75;44.89
49178;BME280;35016;55.674;37.468;2022-08-19T01:31:35;99708.56;;;21.66;45.10
49178;BME280;35016;55.674;37.468;2022-08-19T01:34:03;99711.00;;;21.59;45.25
49178;BME280;35016;55.674;37.468;2022-08-19T01:36:41;99707.63;;;21.53;45.79
49178;BME280;35016;55.674;37.468;2022-08-19T01:39:15;99706.03;;;21.44;45.80
49178;BME280;35016;55.674;37.468;2022-08-19T01:41:43;99706.97;;;21.39;45.54
49178;BME280;35016;55.674;37.468;2022-08-19T01:44:10;99704.72;;;21.32;45.48
49178;BME280;35016;55.674;37.468;2022-08-19T01:46:46;99704.56;;;21.29;45.94
49178;BME280;35016;55.674;37.468;2022-08-19T01:49:15;99694.50;;;21.24;46.09
49178;BME280;35016;55.674;37.468;2022-08-19T01:51:42;99698.22;;;21.20;45.90
49178;BME280;35016;55.674;37.468;2022-08-19T01:54:12;99690.59;;;21.17;46.48
49178;BME280;35016;55.674;37.468;2022-08-19T01:56:54;99702.75;;;21.16;45.64
49178;BME280;35016;55.674;37.468;2022-08-19T01:59:23;99695.75;;;21.10;46.01
49178;BME280;35016;55.674;37.468;2022-08-19T02:01:50;99694.94;;;21.00;46.24
49178;BME280;35016;55.674;37.468;2022-08-19T02:04:18;99681.97;;;21.01;46.29
49178;BME280;35016;55.674;37.468;2022-08-19T02:06:45;99682.94;;;20.96;46.40
49178;BME280;35016;55.674;37.468;2022-08-19T02:09:12;99691.06;;;20.93;46.81
49178;BME280;35016;55.674;37.468;2022-08-19T02:11:39;99683.28;;;20.95;46.75
49178;BME280;35016;55.674;37.468;2022-08-19T02:14:07;99695.75;;;20.92;46.94
49178;BME280;35016;55.674;37.468;2022-08-19T02:16:35;99694.97;;;20.92;46.97
49178;BME280;35016;55.674;37.468;2022-08-19T02:19:03;99700.78;;;20.90;47.10
49178;BME280;35016;55.674;37.468;2022-08-19T02:21:31;99693.66;;;20.89;46.99
49178;BME280;35016;55.674;37.468;2022-08-19T02:23:58;99705.34;;;20.86;47.06
49178;BME280;35016;55.674;37.468;2022-08-19T02:26:26;99732.75;;;20.91;47.06
49178;BME280;35016;55.674;37.468;2022-08-19T02:28:56;99738.25;;;20.91;47.02
49178;BME280;35016;55.674;37.468;2022-08-19T02:31:25;99733.06;;;20.90;47.16
49178;BME280;35016;55.674;37.468;2022-08-19T02:33:56;99742.97;;;20.91;47.17
49178;BME280;35016;55.674;37.468;2022-08-19T02:36:24;99719.75;;;20.83;47.39
49178;BME280;35016;55.674;37.468;2022-08-19T02:38:52;99722.03;;;20.90;47.26
49178;BME280;35016;55.674;37.468;2022-08-19T02:41:32;99726.41;;;20.91;47.72
49178;BME280;35016;55.674;37.468;2022-08-19T02:44:01;99733.88;;;20.90;47.10
49178;BME280;35016;55.674;37.468;2022-08-19T02:46:48;99722.84;;;20.90;47.09
49178;BME280;35016;55.674;37.468;2022-08-19T02:49:19;99726.09;;;20.92;47.25
49178;BME280;35016;55.674;37.468;2022-08-19T02:51:47;99729.66;;;20.93;47.27
49178;BME280;35016;55.674;37.468;2022-08-19T02:54:14;99734.03;;;20.94;47.31
49178;BME280;35016;55.674;37.468;2022-08-19T02:56:43;99738.41;;;20.95;47.30
49178;BME280;35016;55.674;37.468;2022-08-19T02:59:10;99717.81;;;20.92;47.28
49178;BME280;35016;55.674;37.468;2022-08-19T03:01:40;99717.50;;;20.94;47.04
49178;BME280;35016;55.674;37.468;2022-08-19T03:04:12;99723.66;;;20.91;47.33
49178;BME280;35016;55.674;37.468;2022-08-19T03:06:41;99729.19;;;20.91;47.35
49178;BME280;35016;55.674;37.468;2022-08-19T03:09:09;99724.47;;;20.91;47.49
49178;BME280;35016;55.674;37.468;2022-08-19T03:11:37;99724.78;;;20.90;47.43
49178;BME280;35016;55.674;37.468;2022-08-19T03:14:05;99725.59;;;20.90;47.32
49178;BME280;35016;55.674;37.468;2022-08-19T03:16:36;99728.69;;;20.89;47.57
49178;BME280;35016;55.674;37.468;2022-08-19T03:19:06;99734.84;;;20.86;47.51
49178;BME280;35016;55.674;37.468;2022-08-19T03:21:34;99729.16;;;20.82;47.54
49178;BME280;35016;55.674;37.468;2022-08-19T03:24:04;99726.53;;;20.77;47.70
49178;BME280;35016;55.674;37.468;2022-08-19T03:26:32;99736.97;;;20.89;47.69
49178;BME280;35016;55.674;37.468;2022-08-19T03:29:04;99752.84;;;20.92;47.95
49178;BME280;35016;55.674;37.468;2022-08-19T03:31:34;99746.19;;;20.93;47.69
49178;BME280;35016;55.674;37.468;2022-08-19T03:34:12;99744.09;;;20.90;47.72
49178;BME280;35016;55.674;37.468;2022-08-19T03:36:40;99745.88;;;20.94;47.70
49178;BME280;35016;55.674;37.468;2022-08-19T03:39:07;99748.81;;;20.98;47.88
49178;BME280;35016;55.674;37.468;2022-08-19T03:41:40;99744.09;;;20.98;47.80
49178;BME280;35016;55.674;37.468;2022-08-19T03:44:16;99730.47;;;21.02;47.83
49178;BME280;35016;55.674;37.468;2022-08-19T03:46:51;99742.00;;;21.04;47.96
49178;BME280;35016;55.674;37.468;2022-08-19T03:49:18;99729.19;;;21.08;47.21
49178;BME280;35016;55.674;37.468;2022-08-19T03:51:48;99743.13;;;21.03;47.71
49178;BME280;35016;55.674;37.468;2022-08-19T03:54:18;99741.19;;;21.03;47.50
49178;BME280;35016;55.674;37.468;2022-08-19T03:56:48;99736.81;;;21.02;47.92
49178;BME280;35016;55.674;37.468;2022-08-19T03:59:21;99744.91;;;21.08;47.75
49178;BME280;35016;55.674;37.468;2022-08-19T04:01:54;99730.19;;;21.12;47.53
49178;BME280;35016;55.674;37.468;2022-08-19T04:04:21;99745.25;;;21.15;47.96
49178;BME280;35016;55.674;37.468;2022-08-19T04:06:48;99741.38;;;21.16;47.93
49178;BME280;35016;55.674;37.468;2022-08-19T04:09:15;99732.13;;;21.20;47.78
49178;BME280;35016;55.674;37.468;2022-08-19T04:11:46;99747.06;;;21.28;48.08
49178;BME280;35016;55.674;37.468;2022-08-19T04:14:20;99747.72;;;21.33;47.96
49178;BME280;35016;55.674;37.468;2022-08-19T04:16:48;99742.53;;;21.41;47.67
49178;BME280;35016;55.674;37.468;2022-08-19T04:19:17;99748.38;;;21.48;47.56
49178;BME280;35016;55.674;37.468;2022-08-19T04:21:47;99747.22;;;21.57;47.85
49178;BME280;35016;55.674;37.468;2022-08-19T04:24:14;99745.09;;;21.63;47.21
49178;BME280;35016;55.674;37.468;2022-08-19T04:26:42;99751.94;;;21.74;47.47
49178;BME280;35016;55.674;37.468;2022-08-19T04:29:16;99754.66;;;21.83;47.49
49178;BME280;35016;55.674;37.468;2022-08-19T04:31:56;99744.25;;;21.88;46.98
49178;BME280;35016;55.674;37.468;2022-08-19T04:34:26;99751.06;;;21.91;46.98
49178;BME280;35016;55.674;37.468;2022-08-19T04:36:56;99749.09;;;22.00;46.96
49178;BME280;35016;55.674;37.468;2022-08-19T04:39:29;99747.63;;;22.03;46.82
49178;BME280;35016;55.674;37.468;2022-08-19T04:42:21;99750.50;;;22.23;46.84
49178;BME280;35016;55.674;37.468;2022-08-19T04:46:38;99761.72;;;22.27;46.56
49178;BME280;35016;55.674;37.468;2022-08-19T04:49:19;99755.50;;;22.39;46.24
49178;BME280;35016;55.674;37.468;2022-08-19T04:51:49;99750.19;;;22.54;46.28
49178;BME280;35016;55.674;37.468;2022-08-19T04:54:18;99765.16;;;22.62;46.13
49178;BME280;35016;55.674;37.468;2022-08-19T04:57:06;99771.56;;;22.75;45.82
49178;BME280;35016;55.674;37.468;2022-08-19T04:59:34;99773.19;;;22.84;45.81
49178;BME280;35016;55.674;37.468;2022-08-19T05:02:03;99751.38;;;22.83;45.79
49178;BME280;35016;55.674;37.468;2022-08-19T05:04:30;99749.06;;;22.94;45.57
49178;BME280;35016;55.674;37.468;2022-08-19T05:06:59;99745.06;;;23.03;45.51
49178;BME280;35016;55.674;37.468;2022-08-19T05:09:29;99755.25;;;23.11;45.36
49178;BME280;35016;55.674;37.468;2022-08-19T05:12:17;99755.81;;;23.26;45.10
49178;BME280;35016;55.674;37.468;2022-08-19T05:14:45;99753.84;;;23.26;44.93
49178;BME280;35016;55.674;37.468;2022-08-19T05:17:16;99763.72;;;23.36;44.82
49178;BME280;35016;55.674;37.468;2022-08-19T05:19:55;99748.00;;;23.28;44.44
49178;BME280;35016;55.674;37.468;2022-08-19T05:22:46;99766.00;;;23.34;44.90
49178;BME280;35016;55.674;37.468;2022-08-19T05:25:17;99769.53;;;23.43;44.74
49178;BME280;35016;55.674;37.468;2022-08-19T05:27:47;99758.47;;;23.43;44.94
49178;BME280;35016;55.674;37.468;2022-08-19T05:30:14;99762.84;;;23.44;44.77
49178;BME280;35016;55.674;37.468;2022-08-19T05:32:42;99771.50;;;23.42;44.64
49178;BME280;35016;55.674;37.468;2022-08-19T05:35:09;99763.50;;;23.41;44.72
49178;BME280;35016;55.674;37.468;2022-08-19T05:37:47;99760.25;;;23.39;44.87
49178;BME280;35016;55.674;37.468;2022-08-19T05:40:38;99753.09;;;23.38;44.70
49178;BME280;35016;55.674;37.468;2022-08-19T05:43:07;99769.31;;;23.48;44.55
49178;BME280;35016;55.674;37.468;2022-08-19T05:45:39;99753.22;;;23.41;44.80
49178;BME280;35016;55.674;37.468;2022-08-19T05:48:12;99753.91;;;23.38;44.51
49178;BME280;35016;55.674;37.468;2022-08-19T05:50:40;99750.81;;;23.40;44.57
49178;BME280;35016;55.674;37.468;2022-08-19T05:53:08;99759.66;;;23.54;44.40
49178;BME280;35016;55.674;37.468;2022-08-19T05:55:36;99761.78;;;23.57;44.87
49178;BME280;35016;55.674;37.468;2022-08-19T05:58:05;99750.97;;;23.43;44.55
49178;BME280;35016;55.674;37.468;2022-08-19T06:00:36;99755.13;;;23.49;44.48
49178;BME280;35016;55.674;37.468;2022-08-19T06:03:04;99760.00;;;23.53;44.35
49178;BME280;35016;55.674;37.468;2022-08-19T06:05:39;99755.56;;;23.60;44.42
49178;BME280;35016;55.674;37.468;2022-08-19T06:08:18;99750.94;;;23.64;44.29
49178;BME280;35016;55.674;37.468;2022-08-19T06:10:45;99761.34;;;23.67;44.26
49178;BME280;35016;55.674;37.468;2022-08-19T06:13:12;99768.78;;;23.75;44.19
49178;BME280;35016;55.674;37.468;2022-08-19T06:15:40;99756.91;;;23.75;44.08
49178;BME280;35016;55.674;37.468;2022-08-19T06:18:13;99778.28;;;23.87;44.21
49178;BME280;35016;55.674;37.468;2022-08-19T06:20:41;99791.50;;;24.02;44.05
49178;BME280;35016;55.674;37.468;2022-08-19T06:23:21;99762.34;;;23.96;43.75
49178;BME280;35016;55.674;37.468;2022-08-19T06:25:50;99764.25;;;24.04;44.03
49178;BME280;35016;55.674;37.468;2022-08-19T06:28:17;99782.72;;;24.12;43.80
49178;BME280;35016;55.674;37.468;2022-08-19T06:30:45;99780.78;;;24.13;43.76
49178;BME280;35016;55.674;37.468;2022-08-19T06:33:12;99772.47;;;24.13;43.76
49178;BME280;35016;55.674;37.468;2022-08-19T06:35:40;99784.25;;;24.22;43.58
49178;BME280;35016;55.674;37.468;2022-08-19T06:38:33;99769.47;;;24.18;43.67
49178;BME280;35016;55.674;37.468;2022-08-19T06:41:04;99769.69;;;24.25;43.63
49178;BME280;35016;55.674;37.468;2022-08-19T06:43:33;99771.16;;;24.43;43.71
49178;BME280;35016;55.674;37.468;2022-08-19T06:46:16;99776.94;;;24.50;43.40
49178;BME280;35016;55.674;37.468;2022-08-19T06:48:45;99776.34;;;24.45;43.41
49178;BME280;35016;55.674;37.468;2022-08-19T06:51:14;99783.06;;;24.44;43.34
49178;BME280;35016;55.674;37.468;2022-08-19T06:53:53;99782.94;;;24.40;43.44
49178;BME280;35016;55.674;37.468;2022-08-19T06:56:25;99783.97;;;24.48;43.49
49178;BME280;35016;55.674;37.468;2022-08-19T06:58:59;99749.31;;;24.42;43.41
49178;BME280;35016;55.674;37.468;2022-08-19T07:01:55;99751.50;;;24.48;43.20
49178;BME280;35016;55.674;37.468;2022-08-19T07:04:30;99768.53;;;24.59;43.15
49178;BME280;35016;55.674;37.468;2022-08-19T07:07:03;99799.47;;;24.73;43.15
49178;BME280;35016;55.674;37.468;2022-08-19T07:09:48;99759.72;;;24.69;42.89
49178;BME280;35016;55.674;37.468;2022-08-19T07:12:29;99791.03;;;24.82;42.56
49178;BME280;35016;55.674;37.468;2022-08-19T07:15:04;99776.00;;;24.83;42.97
49178;BME280;35016;55.674;37.468;2022-08-19T07:17:31;99772.41;;;24.82;42.64
49178;BME280;35016;55.674;37.468;2022-08-19T07:20:01;99767.47;;;24.88;42.48
49178;BME280;35016;55.674;37.468;2022-08-19T07:22:38;99778.44;;;25.09;42.16
49178;BME280;35016;55.674;37.468;2022-08-19T07:25:08;99760.25;;;25.23;41.81
49178;BME280;35016;55.674;37.468;2022-08-19T07:27:36;99783.94;;;25.33;41.59
49178;BME280;35016;55.674;37.468;2022-08-19T07:30:07;99783.78;;;25.42;41.36
49178;BME280;35016;55.674;37.468;2022-08-19T07:32:38;99784.69;;;25.58;41.25
49178;BME280;35016;55.674;37.468;2022-08-19T07:35:06;99782.69;;;25.71;40.93
49178;BME280;35016;55.674;37.468;2022-08-19T07:37:33;99789.22;;;25.90;40.52
49178;BME280;35016;55.674;37.468;2022-08-19T07:40:05;99778.94;;;26.07;40.51
49178;BME280;35016;55.674;37.468;2022-08-19T07:42:32;99770.50;;;26.19;40.08
49178;BME280;35016;55.674;37.468;2022-08-19T07:44:59;99777.31;;;26.34;39.96
49178;BME280;35016;55.674;37.468;2022-08-19T07:47:28;99780.72;;;26.43;39.64
49178;BME280;35016;55.674;37.468;2022-08-19T07:50:14;99790.47;;;26.52;39.59
49178;BME280;35016;55.674;37.468;2022-08-19T07:52:41;99787.97;;;26.63;39.26
49178;BME280;35016;55.674;37.468;2022-08-19T07:55:17;99787.69;;;26.68;39.12
49178;BME280;35016;55.674;37.468;2022-08-19T07:58:04;99783.47;;;26.74;39.02
49178;BME280;35016;55.674;37.468;2022-08-19T08:00:31;99782.03;;;26.80;38.75
49178;BME280;35016;55.674;37.468;2022-08-19T08:02:58;99782.75;;;26.93;38.44
49178;BME280;35016;55.674;37.468;2022-08-19T08:05:28;99786.97;;;27.03;38.49
49178;BME280;35016;55.674;37.468;2022-08-19T08:08:14;99795.53;;;27.13;37.95
49178;BME280;35016;55.674;37.468;2022-08-19T08:11:00;99794.13;;;27.20;37.53
49178;BME280;35016;55.674;37.468;2022-08-19T08:13:27;99794.19;;;27.23;36.97
49178;BME280;35016;55.674;37.468;2022-08-19T08:15:55;99778.03;;;27.13;36.92
49178;BME280;35016;55.674;37.468;2022-08-19T08:18:24;99798.97;;;27.23;37.06
49178;BME280;35016;55.674;37.468;2022-08-19T08:20:57;99775.06;;;27.22;36.95
49178;BME280;35016;55.674;37.468;2022-08-19T08:23:24;99789.72;;;27.19;37.01
49178;BME280;35016;55.674;37.468;2022-08-19T08:25:55;99793.66;;;27.17;36.71
49178;BME280;35016;55.674;37.468;2022-08-19T08:28:25;99801.19;;;27.17;37.19
49178;BME280;35016;55.674;37.468;2022-08-19T08:30:57;99804.16;;;27.24;36.91
49178;BME280;35016;55.674;37.468;2022-08-19T08:33:26;99798.41;;;27.17;37.10
49178;BME280;35016;55.674;37.468;2022-08-19T08:36:11;99800.06;;;27.18;36.72
49178;BME280;35016;55.674;37.468;2022-08-19T08:38:38;99810.03;;;27.19;37.11
49178;BME280;35016;55.674;37.468;2022-08-19T08:41:31;99804.59;;;27.26;37.05
49178;BME280;35016;55.674;37.468;2022-08-19T08:44:02;99812.66;;;27.31;36.84
49178;BME280;35016;55.674;37.468;2022-08-19T08:46:41;99803.78;;;27.26;36.82
49178;BME280;35016;55.674;37.468;2022-08-19T08:50:04;99795.53;;;27.29;37.07
49178;BME280;35016;55.674;37.468;2022-08-19T08:52:08;99795.00;;;27.24;36.99
49178;BME280;35016;55.674;37.468;2022-08-19T08:54:43;99808.84;;;27.20;36.94
49178;BME280;35016;55.674;37.468;2022-08-19T09:00:21;99785.59;;;26.97;37.04
49178;BME280;35016;55.674;37.468;2022-08-19T09:02:49;99795.03;;;26.92;37.01
49178;BME280;35016;55.674;37.468;2022-08-19T09:05:18;99796.56;;;26.90;37.36
49178;BME280;35016;55.674;37.468;2022-08-19T09:08:02;99788.03;;;26.98;36.95
49178;BME280;35016;55.674;37.468;2022-08-19T09:10:54;99796.56;;;27.05;36.83
49178;BME280;35016;55.674;37.468;2022-08-19T09:13:33;99795.38;;;27.22;36.41
49178;BME280;35016;55.674;37.468;2022-08-19T09:16:06;99795.44;;;27.45;36.42
49178;BME280;35016;55.674;37.468;2022-08-19T09:18:54;99794.53;;;27.57;35.71
49178;BME280;35016;55.674;37.468;2022-08-19T09:21:24;99802.28;;;27.48;35.64
49178;BME280;35016;55.674;37.468;2022-08-19T09:23:59;99802.47;;;27.39;35.60
49178;BME280;35016;55.674;37.468;2022-08-19T09:26:30;99809.16;;;27.34;35.86
49178;BME280;35016;55.674;37.468;2022-08-19T09:29:20;99817.22;;;27.39;35.50
49178;BME280;35016;55.674;37.468;2022-08-19T09:31:48;99801.81;;;27.45;35.34
49178;BME280;35016;55.674;37.468;2022-08-19T09:34:16;99807.66;;;27.56;35.07
49178;BME280;35016;55.674;37.468;2022-08-19T09:36:49;99798.66;;;27.63;35.25
49178;BME280;35016;55.674;37.468;2022-08-19T09:39:21;99798.56;;;27.59;35.05
49178;BME280;35016;55.674;37.468;2022-08-19T09:41:48;99800.38;;;27.52;35.39
49178;BME280;35016;55.674;37.468;2022-08-19T09:44:18;99809.84;;;27.47;35.32
49178;BME280;35016;55.674;37.468;2022-08-19T09:46:54;99801.94;;;27.49;35.42
49178;BME280;35016;55.674;37.468;2022-08-19T09:49:23;99810.88;;;27.58;35.36
49178;BME280;35016;55.674;37.468;2022-08-19T09:51:52;99800.16;;;27.60;35.26
49178;BME280;35016;55.674;37.468;2022-08-19T09:54:23;99802.16;;;27.60;35.34
49178;BME280;35016;55.674;37.468;2022-08-19T09:56:55;99800.63;;;27.62;35.54
49178;BME280;35016;55.674;37.468;2022-08-19T09:59:39;99810.31;;;27.68;35.58
49178;BME280;35016;55.674;37.468;2022-08-19T10:02:06;99793.88;;;27.83;35.23
49178;BME280;35016;55.674;37.468;2022-08-19T10:04:36;99796.06;;;27.93;34.88
49178;BME280;35016;55.674;37.468;2022-08-19T10:07:22;99820.13;;;28.01;34.48
49178;BME280;35016;55.674;37.468;2022-08-19T10:10:05;99806.97;;;28.01;33.63
49178;BME280;35016;55.674;37.468;2022-08-19T10:12:34;99828.34;;;27.94;33.83
49178;BME280;35016;55.674;37.468;2022-08-19T10:15:01;99814.41;;;27.94;33.39
49178;BME280;35016;55.674;37.468;2022-08-19T10:17:28;99823.22;;;27.96;32.69
49178;BME280;35016;55.674;37.468;2022-08-19T10:19:59;99818.75;;;27.91;31.97
49178;BME280;35016;55.674;37.468;2022-08-19T10:22:26;99820.97;;;27.82;31.37
49178;BME280;35016;55.674;37.468;2022-08-19T10:24:53;99822.69;;;27.71;31.10
49178;BME280;35016;55.674;37.468;2022-08-19T10:27:21;99808.19;;;27.62;30.82
49178;BME280;35016;55.674;37.468;2022-08-19T10:29:48;99820.94;;;27.63;30.50
49178;BME280;35016;55.674;37.468;2022-08-19T10:32:15;99814.19;;;27.64;30.42
49178;BME280;35016;55.674;37.468;2022-08-19T10:34:42;99817.94;;;27.71;30.05
49178;BME280;35016;55.674;37.468;2022-08-19T10:37:16;99814.72;;;27.89;30.07
49178;BME280;35016;55.674;37.468;2022-08-19T10:39:54;99826.13;;;28.03;29.77
49178;BME280;35016;55.674;37.468;2022-08-19T10:42:22;99832.31;;;28.12;29.38
49178;BME280;35016;55.674;37.468;2022-08-19T10:44:52;99817.91;;;28.29;28.90
49178;BME280;35016;55.674;37.468;2022-08-19T10:47:19;99812.38;;;28.33;28.77
49178;BME280;35016;55.674;37.468;2022-08-19T10:49:53;99816.28;;;28.28;28.61
49178;BME280;35016;55.674;37.468;2022-08-19T10:52:54;99797.56;;;28.29;28.60
49178;BME280;35016;55.674;37.468;2022-08-19T10:55:23;99807.56;;;28.30;27.95
49178;BME280;35016;55.674;37.468;2022-08-19T10:58:15;99820.16;;;28.24;27.65
49178;BME280;35016;55.674;37.468;2022-08-19T11:00:56;99840.59;;;28.28;27.48
49178;BME280;35016;55.674;37.468;2022-08-19T11:03:25;99816.06;;;28.18;27.44
49178;BME280;35016;55.674;37.468;2022-08-19T11:05:59;99826.84;;;28.19;26.67
49178;BME280;35016;55.674;37.468;2022-08-19T11:08:27;99791.34;;;28.35;28.05
49178;BME280;35016;55.674;37.468;2022-08-19T11:10:54;99813.44;;;28.25;27.22
49178;BME280;35016;55.674;37.468;2022-08-19T11:13:24;99813.97;;;28.11;26.78
49178;BME280;35016;55.674;37.468;2022-08-19T11:16:05;99808.72;;;28.29;26.66
49178;BME280;35016;55.674;37.468;2022-08-19T11:18:39;99808.19;;;28.23;26.42
49178;BME280;35016;55.674;37.468;2022-08-19T11:21:09;99821.00;;;28.24;26.32
49178;BME280;35016;55.674;37.468;2022-08-19T11:23:40;99810.19;;;28.23;26.25
49178;BME280;35016;55.674;37.468;2022-08-19T11:26:08;99803.75;;;28.19;26.31
49178;BME280;35016;55.674;37.468;2022-08-19T11:28:35;99815.25;;;28.17;26.55
49178;BME280;35016;55.674;37.468;2022-08-19T11:31:03;99808.34;;;28.30;26.40
49178;BME280;35016;55.674;37.468;2022-08-19T11:33:30;99803.59;;;28.54;26.35
49178;BME280;35016;55.674;37.468;2022-08-19T11:35:58;99818.47;;;28.61;26.19
49178;BME280;35016;55.674;37.468;2022-08-19T11:38:27;99793.66;;;28.56;26.34
49178;BME280;35016;55.674;37.468;2022-08-19T11:40:59;99806.97;;;28.63;26.12
49178;BME280;35016;55.674;37.468;2022-08-19T11:43:27;99813.41;;;28.67;26.27
49178;BME280;35016;55.674;37.468;2022-08-19T11:45:58;99815.13;;;28.75;26.10
49178;BME280;35016;55.674;37.468;2022-08-19T11:48:25;99824.25;;;28.72;26.17
49178;BME280;35016;55.674;37.468;2022-08-19T11:50:53;99830.69;;;28.76;26.36
49178;BME280;35016;55.674;37.468;2022-08-19T11:53:23;99809.72;;;28.86;26.24
49178;BME280;35016;55.674;37.468;2022-08-19T11:55:53;99826.91;;;28.88;25.86
49178;BME280;35016;55.674;37.468;2022-08-19T11:58:23;99810.41;;;29.02;25.97
49178;BME280;35016;55.674;37.468;2022-08-19T12:00:52;99816.13;;;29.13;25.85
49178;BME280;35016;55.674;37.468;2022-08-19T12:03:22;99810.09;;;29.37;25.92
49178;BME280;35016;55.674;37.468;2022-08-19T12:05:50;63711.97;;;-142.79;100.00
49178;BME280;35016;55.674;37.468;2022-08-19T12:08:18;63711.97;;;-142.79;100.00
49178;BME280;35016;55.674;37.468;2022-08-19T12:10:45;63711.97;;;-142.79;100.00
49178;BME280;35016;55.674;37.468;2022-08-19T12:13:12;63711.97;;;-142.79;100.00
49178;BME280;35016;55.674;37.468;2022-08-19T12:15:46;63711.97;;;-142.79;100.00
49178;BME280;35016;55.674;37.468;2022-08-19T12:18:14;63711.97;;;-142.79;100.00
49178;BME280;35016;55.674;37.468;2022-08-19T12:20:42;63711.97;;;-142.79;100.00
49178;BME280;35016;55.674;37.468;2022-08-19T12:23:10;63711.97;;;-142.79;100.00
49178;BME280;35016;55.674;37.468;2022-08-19T12:25:45;63711.97;;;-142.79;26.11
49178;BME280;35016;55.674;37.468;2022-08-19T12:28:19;99801.91;;;31.69;25.43
49178;BME280;35016;55.674;37.468;2022-08-19T12:30:48;99787.66;;;32.24;25.21
49178;BME280;35016;55.674;37.468;2022-08-19T12:33:18;99794.16;;;32.56;24.69
49178;BME280;35016;55.674;37.468;2022-08-19T12:35:49;99803.38;;;32.50;24.60
49178;BME280;35016;55.674;37.468;2022-08-19T12:38:22;99798.50;;;32.22;24.99
49178;BME280;35016;55.674;37.468;2022-08-19T12:40:51;99792.06;;;32.14;25.08
49178;BME280;35016;55.674;37.468;2022-08-19T12:43:24;99811.34;;;32.23;25.25
49178;BME280;35016;55.674;37.468;2022-08-19T12:45:51;99805.78;;;32.41;25.35
49178;BME280;35016;55.674;37.468;2022-08-19T12:48:18;99800.97;;;32.70;24.72
49178;BME280;35016;55.674;37.468;2022-08-19T12:51:00;99788.94;;;32.94;24.32
49178;BME280;35016;55.674;37.468;2022-08-19T12:53:28;99781.72;;;33.04;24.47
49178;BME280;35016;55.674;37.468;2022-08-19T12:55:56;99797.38;;;33.05;24.52
49178;BME280;35016;55.674;37.468;2022-08-19T12:58:23;99788.94;;;33.01;24.54
49178;BME280;35016;55.674;37.468;2022-08-19T13:00:53;99798.16;;;32.77;24.72
49178;BME280;35016;55.674;37.468;2022-08-19T13:03:23;99801.38;;;32.72;24.83
49178;BME280;35016;55.674;37.468;2022-08-19T13:05:56;99802.56;;;32.63;25.11
49178;BME280;35016;55.674;37.468;2022-08-19T13:08:24;99793.72;;;32.37;25.00
49178;BME280;35016;55.674;37.468;2022-08-19T13:10:51;99799.22;;;31.97;25.53
49178;BME280;35016;55.674;37.468;2022-08-19T13:13:20;99813.47;;;31.53;25.69
49178;BME280;35016;55.674;37.468;2022-08-19T13:15:47;99817.31;;;31.24;26.30
49178;BME280;35016;55.674;37.468;2022-08-19T13:18:14;99810.25;;;30.93;26.63
49178;BME280;35016;55.674;37.468;2022-08-19T13:20:41;99818.88;;;30.70;27.00
49178;BME280;35016;55.674;37.468;2022-08-19T13:23:18;99811.28;;;30.70;27.08